Time;durP1;ratioP1;P1;durP2;ratioP2;P2;SDS_P1;SDS_P2;PMS_P1;PMS_P2;Temp;Humidity;BMP_temperature;BMP_pressure;BME280_temperature;BME280_humidity;BME280_pressure;Samples;Min_cycle;Max_cycle;Signal;HPM_P1;HPM_P2
2022/05/17 00:02:41;;;;;;;;;;;;;;;25.46;58.79;100846.28;4977550;28;20101;-52
2022/05/17 00:05:27;;;;;;;2.17;1.60;;;;;;;25.48;58.79;100849.63;4977204;28;20033;-52
2022/05/17 00:08:12;;;;;;;1.95;1.60;;;;;;;25.50;58.93;100844.75;4962831;28;20057;-53
2022/05/17 00:10:56;;;;;;;1.50;1.40;;;;;;;25.48;58.93;100841.41;4977001;28;20537;-52
2022/05/17 00:13:41;;;;;;;1.40;1.30;;;;;;;25.49;58.83;100843.09;4977045;28;20050;-56
2022/05/17 00:16:25;;;;;;;1.45;1.30;;;;;;;25.48;58.84;100835.97;4976784;28;20177;-51
2022/05/17 00:19:11;;;;;;;2.47;1.40;;;;;;;25.48;58.71;100849.63;4962095;28;20057;-53
2022/05/17 00:21:54;;;;;;;2.15;1.65;;;;;;;25.47;58.73;100846.06;4962178;28;20152;-51
2022/05/17 00:24:38;;;;;;;1.52;1.20;;;;;;;25.47;58.66;100845.22;4977096;28;20093;-52
2022/05/17 00:27:22;;;;;;;1.70;1.40;;;;;;;25.46;58.78;100846.28;4976582;28;20062;-53
2022/05/17 00:30:06;;;;;;;;;;;;;;;25.41;58.81;100843.41;4976959;28;20447;-53
2022/05/17 00:32:50;;;;;;;1.60;1.48;;;;;;;25.42;58.69;100856.81;4961836;28;20388;-50
2022/05/17 00:35:35;;;;;;;2.65;1.23;;;;;;;25.44;58.72;100848.41;4976695;28;20065;-56
2022/05/17 00:38:19;;;;;;;1.40;1.30;;;;;;;25.44;58.59;100848.41;4976681;28;20097;-55
2022/05/17 00:41:03;;;;;;;2.22;1.42;;;;;;;25.42;58.63;100845.91;4976628;28;20134;-51
2022/05/17 00:47:04;;;;;;;1.80;1.58;;;;;;;25.42;58.61;100850.53;4976186;28;20050;-55
2022/05/17 00:50:24;;;;;;;1.77;1.40;;;;;;;25.41;58.65;100862.53;4961820;28;20569;-52
2022/05/17 00:53:24;;;;;;;1.48;1.25;;;;;;;25.40;58.42;100858.09;4976052;28;20042;-54
2022/05/17 00:56:13;;;;;;;1.63;1.40;;;;;;;25.41;58.61;100854.34;4947882;28;20133;-53
2022/05/17 00:58:59;;;;;;;3.38;1.50;;;;;;;25.38;58.73;100846.56;4976304;28;20062;-50
2022/05/17 01:01:43;;;;;;;1.52;1.40;;;;;;;25.39;58.68;100854.53;4961366;28;20578;-52
2022/05/17 01:04:27;;;;;;;1.60;1.40;;;;;;;25.37;58.68;100842.19;4961535;28;20050;-53
2022/05/17 01:07:17;;;;;;;;;;;;;;;25.31;58.56;100846.66;4976143;28;20407;-50
2022/05/17 01:10:01;;;;;;;1.55;1.38;;;;;;;25.34;58.71;100848.91;4961521;28;20433;-55
2022/05/17 01:14:57;;;;;;;;;;;;;;;25.29;58.72;100845.19;4976086;28;20173;-52
2022/05/17 01:15:48;;;;;;;1.40;1.30;;;;;;;25.32;58.52;100844.75;4975843;28;20393;-51
2022/05/17 01:18:34;;;;;;;1.85;1.60;;;;;;;25.33;58.54;100846.44;4961265;28;20041;-55
2022/05/17 01:21:17;;;;;;;1.77;1.40;;;;;;;25.32;58.79;100848.31;4975899;28;20058;-52
2022/05/17 01:24:01;;;;;;;;;;;;;;;25.26;58.88;100851.09;4976151;28;20053;-52
2022/05/17 01:26:49;;;;;;;1.47;1.20;;;;;;;25.30;58.84;100846.91;4975479;28;20486;-52
2022/05/17 01:29:41;;;;;;;1.70;1.50;;;;;;;25.31;58.93;100837.63;4960773;28;20463;-54
2022/05/17 01:32:25;;;;;;;1.50;1.40;;;;;;;25.29;58.74;100843.31;4976576;28;20054;-51
2022/05/17 01:35:09;;;;;;;1.20;1.10;;;;;;;25.29;58.91;100845.19;4975326;28;20133;-50
2022/05/17 01:37:55;;;;;;;;;;;;;;;25.22;58.86;100842.53;4975657;28;20053;-55
2022/05/17 01:40:40;;;;;;;1.55;1.45;;;;;;;25.25;58.95;100838.53;4975529;28;19971;-51
2022/05/17 01:43:24;;;;;;;1.40;1.30;;;;;;;25.26;58.87;100840.19;4961037;28;20510;-51
2022/05/17 01:46:11;;;;;;;;;;;;;;;25.20;58.91;100841.94;4961128;28;20146;-50
2022/05/17 01:48:55;;;;;;;2.17;1.40;;;;;;;25.23;59.04;100840.66;4975324;28;19925;-56
2022/05/17 01:51:39;;;;;;;2.00;1.75;;;;;;;25.23;59.08;100844.19;4975251;28;20054;-57
2022/05/17 01:54:23;;;;;;;1.30;1.17;;;;;;;25.22;59.20;100844.44;4975259;28;20057;-53
2022/05/17 01:57:07;;;;;;;1.77;1.23;;;;;;;25.22;59.05;100845.25;4975139;28;20049;-53
2022/05/17 01:59:51;;;;;;;1.63;1.48;;;;;;;25.21;59.16;100848.25;4975201;28;20121;-52
2022/05/17 02:02:36;;;;;;;1.85;1.42;;;;;;;25.22;59.14;100852.63;4974801;28;20157;-55
2022/05/17 02:05:23;;;;;;;2.08;1.75;;;;;;;25.22;59.12;100841.72;4975091;28;20045;-51
2022/05/17 02:08:07;;;;;;;1.67;1.58;;;;;;;25.21;59.09;100842.78;4974770;28;20054;-51
2022/05/17 02:10:50;;;;;;;;;;;;;;;25.14;59.25;100847.44;4960533;28;20098;-50
2022/05/17 02:13:34;;;;;;;1.58;1.42;;;;;;;25.16;59.16;100846.16;4960101;28;19921;-56
2022/05/17 02:16:18;;;;;;;1.45;1.35;;;;;;;25.17;59.03;100842.34;4974981;28;20554;-51
2022/05/17 02:19:02;;;;;;;;;;;;;;;25.11;59.27;100837.78;4974377;28;20101;-51
2022/05/17 02:21:47;;;;;;;1.50;1.40;;;;;;;25.15;58.95;100838.19;4974733;28;19963;-52
2022/05/17 02:24:31;;;;;;;1.58;1.40;;;;;;;25.15;59.11;100854.56;4974618;28;20052;-51
2022/05/17 02:27:15;;;;;;;;;;;;;;;25.09;59.18;100845.38;4975002;28;20073;-53
2022/05/17 02:29:58;;;;;;;1.30;1.20;;;;;;;25.12;59.12;100844.91;4974850;28;20409;-52
2022/05/17 02:32:42;;;;;;;;;;;;;;;25.08;59.25;100848.31;4974715;28;20057;-54
2022/05/17 02:35:26;;;;;;;1.65;1.33;;;;;;;25.10;59.45;100846.22;4959846;28;19921;-53
2022/05/17 02:38:10;;;;;;;;;;;;;;;25.06;59.29;100850.44;4975146;28;20050;-54
2022/05/17 02:40:54;;;;;;;1.88;1.52;;;;;;;25.09;59.18;100852.69;4974674;28;19937;-52
2022/05/17 02:43:38;;;;;;;;;;;;;;;25.04;59.41;100845.22;4974740;28;20122;-55
2022/05/17 02:46:22;;;;;;;2.83;1.40;;;;;;;25.06;59.36;100850.44;4974579;28;19920;-53
2022/05/17 02:49:07;;;;;;;1.70;1.60;;;;;;;25.07;59.40;100846.63;4974623;28;20093;-52
2022/05/17 02:51:51;;;;;;;1.80;1.42;;;;;;;25.07;59.29;100846.63;4959600;28;20045;-52
2022/05/17 02:54:35;;;;;;;;;;;;;;;25.01;59.37;100858.47;4974999;28;20054;-52
2022/05/17 02:57:19;;;;;;;1.80;1.30;;;;;;;25.03;59.42;100856.34;4974287;28;19921;-55
2022/05/17 03:00:04;;;;;;;;;;;;;;;24.99;59.40;100857.84;4974993;28;20461;-53
2022/05/17 03:02:48;;;;;;;2.25;1.40;;;;;;;25.03;59.27;100867.25;4974163;28;19920;-53
2022/05/17 03:05:31;;;;;;;1.40;1.30;;;;;;;25.03;59.36;100869.97;4974410;28;20049;-55
2022/05/17 03:08:15;;;;;;;;;;;;;;;24.96;59.29;100872.78;4974747;28;20057;-53
2022/05/17 03:11:00;;;;;;;1.50;1.40;;;;;;;25.00;59.26;100870.44;4959801;28;19925;-51
2022/05/17 03:13:44;;;;;;;3.05;1.83;;;;;;;25.01;59.11;100891.19;4959377;28;20173;-56
2022/05/17 03:16:29;;;;;;;;;;;;;;;24.95;59.19;100875.72;4974508;28;20046;-53
2022/05/17 03:19:13;;;;;;;2.00;1.80;;;;;;;24.99;59.32;100887.84;4974078;28;19965;-50
2022/05/17 03:21:57;;;;;;;1.35;1.25;;;;;;;24.98;59.26;100891.63;4974241;28;20050;-51
2022/05/17 03:24:41;;;;;;;;;;;;;;;24.92;59.21;100889.81;4974641;28;20666;-50
2022/05/17 03:27:25;;;;;;;1.60;1.50;;;;;;;24.95;59.07;100886.63;4974038;28;20389;-51
2022/05/17 03:30:09;;;;;;;;;;;;;;;24.90;59.25;100895.47;4975220;28;20144;-54
2022/05/17 03:32:53;;;;;;;3.50;1.60;;;;;;;24.93;59.09;100897.75;4977427;28;19921;-53
2022/05/17 03:35:37;;;;;;;1.60;1.45;;;;;;;24.95;59.21;100892.09;4977553;28;20046;-52
2022/05/17 03:38:21;;;;;;;;;;;;;;;24.89;59.25;100892.97;4963520;28;20057;-55
2022/05/17 03:41:05;;;;;;;1.40;1.30;;;;;;;24.90;59.15;100900.94;4977748;28;19921;-53
2022/05/17 03:43:49;;;;;;;1.58;1.48;;;;;;;24.92;59.25;100892.53;4977324;28;20320;-53
2022/05/17 03:46:33;;;;;;;;;;;;;;;24.87;59.22;100897.81;4977969;28;20098;-51
2022/05/17 03:49:17;;;;;;;1.55;1.30;;;;;;;24.90;59.25;100894.66;4962938;28;20391;-50
2022/05/17 03:52:00;;;;;;;;;;;;;;;24.85;59.27;100903.50;4977838;28;20547;-51
2022/05/17 03:54:44;;;;;;;1.33;1.23;;;;;;;24.88;59.25;100896.75;4977752;28;19952;-53
2022/05/17 03:57:28;;;;;;;;;;;;;;;24.85;59.27;100910.84;4977850;28;20046;-53
2022/05/17 04:00:12;;;;;;;1.58;1.48;;;;;;;24.86;59.17;100905.16;4977124;28;19986;-50
2022/05/17 04:02:57;;;;;;;2.53;1.45;;;;;;;24.87;59.01;100901.38;4977033;28;20097;-55
2022/05/17 04:05:40;;;;;;;;;;;;;;;24.83;59.23;100904.78;4977764;28;20050;-52
2022/05/17 04:08:25;;;;;;;1.58;1.30;;;;;;;24.85;59.22;100902.66;4976973;28;19924;-52
2022/05/17 04:11:08;;;;;;;;;;;;;;;24.82;59.17;100903.09;4977496;28;20435;-52
2022/05/17 04:13:52;;;;;;;1.25;1.15;;;;;;;24.84;59.22;100901.81;4976814;28;19921;-54
2022/05/17 04:16:37;;;;;;;;;;;;;;;24.81;59.18;100906.88;4977534;28;20554;-51
2022/05/17 04:19:22;;;;;;;1.60;1.50;;;;;;;24.85;59.09;100908.94;4976796;28;19978;-54
2022/05/17 04:22:08;;;;;;;1.85;1.67;;;;;;;24.85;59.07;100908.09;4961990;28;20419;-52
2022/05/17 04:24:55;;;;;;;1.17;1.15;;;;;;;24.87;59.03;100904.09;4962105;28;20109;-56
2022/05/17 04:27:40;;;;;;;1.77;1.40;;;;;;;24.86;59.03;100907.91;4977103;28;20049;-50
2022/05/17 04:30:24;;;;;;;1.67;1.58;;;;;;;24.87;58.99;100908.72;4976561;28;20053;-50
2022/05/17 04:33:08;;;;;;;1.55;1.40;;;;;;;24.89;58.90;100909.34;4976482;28;20526;-53
2022/05/17 04:35:52;;;;;;;1.50;1.40;;;;;;;24.87;58.79;100905.97;4977021;28;20101;-53
2022/05/17 04:38:36;;;;;;;1.50;1.30;;;;;;;24.87;58.94;100917.75;4976409;28;20411;-54
2022/05/17 04:41:20;;;;;;;1.30;1.20;;;;;;;24.89;58.86;100920.25;4961765;28;20072;-57
2022/05/17 04:44:04;;;;;;;;;;;;;;;24.83;58.90;100918.41;4976803;28;20093;-52
2022/05/17 04:46:48;;;;;;;1.42;1.33;;;;;;;24.87;58.65;100922.34;4976477;28;19976;-53
2022/05/17 04:49:32;;;;;;;1.40;1.30;;;;;;;24.90;58.79;100921.94;4961792;28;20053;-53
2022/05/17 04:52:15;;;;;;;1.30;1.20;;;;;;;24.91;58.72;100929.06;4976103;28;20053;-51
2022/05/17 04:54:59;;;;;;;;;;;;;;;24.84;58.82;100933.72;4976749;28;20112;-52
2022/05/17 04:57:43;;;;;;;1.50;1.40;;;;;;;24.87;58.70;100927.81;4976344;28;19965;-55
2022/05/17 05:00:27;;;;;;;;;;;;;;;24.85;58.68;100932.66;4976423;28;20049;-54
2022/05/17 05:03:11;;;;;;;1.50;1.40;;;;;;;24.89;58.60;100936.63;4975879;28;19921;-52
2022/05/17 05:05:55;;;;;;;;;;;;;;;24.85;58.76;100932.66;4976388;28;20064;-50
2022/05/17 05:08:38;;;;;;;1.17;1.07;;;;;;;24.89;58.54;100940.16;4976385;28;19924;-52
2022/05/17 05:11:22;;;;;;;;;;;;;;;24.85;58.55;100938.09;4976499;28;20781;-53
2022/05/17 05:14:06;;;;;;;1.13;1.07;;;;;;;24.89;58.33;100945.63;4975754;28;19928;-52
2022/05/17 05:16:50;;;;;;;1.48;1.30;;;;;;;24.91;58.41;100950.88;4975960;28;20049;-53
2022/05/17 05:19:34;;;;;;;;;;;;;;;24.87;58.55;100949.63;4976348;28;20073;-54
2022/05/17 05:22:18;;;;;;;1.23;1.10;;;;;;;24.91;58.43;100945.41;4975700;28;20417;-53
2022/05/17 05:25:03;;;;;;;1.35;1.25;;;;;;;24.92;58.43;100944.34;4975526;28;20049;-55
2022/05/17 05:27:47;;;;;;;1.58;1.48;;;;;;;24.92;58.43;100950.63;4975486;28;20058;-54
2022/05/17 05:30:31;;;;;;;;;;;;;;;24.89;58.23;100950.25;4976069;28;20411;-54
2022/05/17 05:33:15;;;;;;;1.35;1.20;;;;;;;24.91;58.22;100945.41;4974637;28;20009;-52
2022/05/17 05:35:59;;;;;;;1.50;1.40;;;;;;;24.95;58.19;100952.09;4975872;28;20045;-50
2022/05/17 05:38:43;;;;;;;1.75;1.30;;;;;;;24.95;58.19;100949.38;4975489;28;20086;-54
2022/05/17 05:41:27;;;;;;;1.40;1.30;;;;;;;24.96;58.04;100953.75;4975375;28;20514;-53
2022/05/17 05:44:10;;;;;;;;;;;;;;;24.92;58.05;100958.00;4975594;28;20510;-50
2022/05/17 05:46:54;;;;;;;1.20;1.10;;;;;;;24.96;58.07;100954.63;4975116;28;20333;-55
2022/05/17 05:49:38;;;;;;;1.50;1.40;;;;;;;24.96;58.03;100957.34;4975103;28;20057;-53
2022/05/17 05:52:22;;;;;;;1.67;1.50;;;;;;;24.98;57.89;100957.09;4974950;28;20085;-55
2022/05/17 05:55:09;;;;;;;1.40;1.30;;;;;;;24.99;57.84;100959.63;4974859;28;20042;-52
2022/05/17 05:57:53;;;;;;;1.42;1.33;;;;;;;25.00;57.73;100963.19;4960470;28;20415;-52
2022/05/17 06:00:38;;;;;;;1.38;1.27;;;;;;;25.01;57.62;100964.88;4974956;28;20124;-54
2022/05/17 06:03:22;;;;;;;1.25;1.15;;;;;;;25.01;57.73;100957.50;4974808;28;20062;-53
2022/05/17 06:06:08;;;;;;;1.27;1.17;;;;;;;25.03;57.61;100966.28;4960237;28;20038;-51
2022/05/17 06:08:53;;;;;;;1.40;1.30;;;;;;;25.03;57.70;100960.00;4974834;28;20104;-53
2022/05/17 06:11:37;;;;;;;1.20;1.10;;;;;;;25.04;57.43;100967.16;4975053;28;20045;-52
2022/05/17 06:14:21;;;;;;;1.50;1.40;;;;;;;25.05;57.41;100966.09;4974752;28;20053;-52
2022/05/17 06:17:05;;;;;;;1.50;1.40;;;;;;;25.05;57.45;100972.38;4974964;28;20041;-52
2022/05/17 06:19:49;;;;;;;;;;;;;;;25.01;57.66;100967.59;4960736;28;20149;-57
2022/05/17 06:22:34;;;;;;;1.60;1.50;;;;;;;25.05;57.36;100968.81;4974566;28;19936;-52
2022/05/17 06:25:18;;;;;;;1.58;1.40;;;;;;;25.07;57.35;100967.53;4959838;28;20046;-49
2022/05/17 06:28:02;;;;;;;1.77;1.48;;;;;;;25.08;57.43;100974.66;4974581;28;20475;-52
2022/05/17 06:30:45;;;;;;;;;;;;;;;25.04;57.34;100972.59;4960588;28;20097;-53
2022/05/17 06:33:29;;;;;;;1.33;1.23;;;;;;;25.08;57.41;100973.81;4974586;28;20448;-55
2022/05/17 06:36:14;;;;;;;1.70;1.20;;;;;;;25.10;57.23;100966.28;4959878;28;20049;-50
2022/05/17 06:38:58;;;;;;;1.65;1.50;;;;;;;25.11;57.26;100967.94;4974711;28;20185;-51
2022/05/17 06:41:43;;;;;;;;;;;;;;;25.09;57.18;100970.03;4974754;28;20177;-54
2022/05/17 06:44:27;;;;;;;1.35;1.25;;;;;;;25.11;57.23;100967.94;4959900;28;19975;-51
2022/05/17 06:47:11;;;;;;;1.42;1.33;;;;;;;25.12;57.13;100964.97;4959802;28;20054;-52
2022/05/17 06:49:55;;;;;;;;;;;;;;;25.09;57.26;100964.56;4974987;28;20121;-55
2022/05/17 06:52:40;;;;;;;1.65;1.40;;;;;;;25.12;57.22;100964.97;4974445;28;19986;-51
2022/05/17 06:55:24;;;;;;;1.80;1.67;;;;;;;25.15;57.16;100959.09;4974538;28;20042;-52
2022/05/17 06:58:08;;;;;;;1.50;1.40;;;;;;;25.16;57.07;100963.50;4974297;28;20045;-54
2022/05/17 07:00:52;;;;;;;1.77;1.30;;;;;;;25.17;56.97;100972.50;4974242;28;20081;-50
2022/05/17 07:03:36;;;;;;;2.00;1.60;;;;;;;25.18;57.00;100971.44;4974422;28;20054;-56
2022/05/17 07:06:20;;;;;;;;;;;;;;;25.12;56.96;100964.97;4976969;28;20053;-52
2022/05/17 07:09:04;;;;;;;1.70;1.60;;;;;;;25.16;57.06;100970.81;4978113;28;20341;-55
2022/05/17 07:14:54;;;;;;;1.35;1.25;;;;;;;25.18;56.94;100968.69;4977949;28;20046;-57
2022/05/17 07:17:38;;;;;;;;;;;;;;;25.14;56.81;100973.75;4978591;28;20058;-55
2022/05/17 07:20:22;;;;;;;2.65;1.65;;;;;;;25.18;57.00;100968.69;4978119;28;20012;-50
2022/05/17 07:23:06;;;;;;;1.85;1.58;;;;;;;25.21;56.87;100973.78;4977841;28;20057;-55
2022/05/17 07:25:50;;;;;;;1.88;1.35;;;;;;;25.21;56.80;100980.03;4977684;28;20423;-54
2022/05/17 07:28:47;;;;;;;1.80;1.52;;;;;;;25.24;56.86;100973.31;4977727;28;20049;-57
2022/05/17 07:31:32;;;;;;;1.50;1.40;;;;;;;25.23;56.85;100972.47;4963019;28;20141;-55
2022/05/17 07:34:17;;;;;;;1.60;1.50;;;;;;;25.27;56.74;100975.59;4979078;28;20140;-52
2022/05/17 07:37:00;;;;;;;;;;;;;;;25.26;56.52;100965.72;4963204;28;20113;-53
2022/05/17 07:39:44;;;;;;;1.50;1.40;;;;;;;25.27;56.61;100961.94;4977773;28;20098;-54
2022/05/17 07:42:28;;;;;;;1.67;1.50;;;;;;;25.28;56.66;100958.16;4977444;28;20097;-57
2022/05/17 07:45:13;;;;;;;;;;;;;;;25.24;56.66;100957.75;4978046;28;20070;-54
2022/05/17 07:47:57;;;;;;;1.38;1.27;;;;;;;25.27;56.76;100957.34;4962770;28;19925;-55
2022/05/17 07:50:41;;;;;;;;;;;;;;;25.25;56.56;100961.34;4977701;28;20049;-54
2022/05/17 07:53:25;;;;;;;1.67;1.58;;;;;;;25.28;56.68;100958.16;4977739;28;20390;-51
2022/05/17 07:56:09;;;;;;;1.80;1.40;;;;;;;25.30;56.57;100956.88;4977192;28;20050;-52
2022/05/17 07:58:53;;;;;;;1.38;1.27;;;;;;;25.32;56.63;100970.31;4977257;28;20101;-53
2022/05/17 08:01:37;;;;;;;;;;;;;;;25.28;56.84;100963.63;4977846;28;20093;-56
2022/05/17 08:04:23;;;;;;;1.77;1.50;;;;;;;25.31;56.69;100957.72;4977332;28;19920;-52
2022/05/17 08:07:08;;;;;;;1.65;1.50;;;;;;;25.32;56.66;100964.84;4977166;28;20054;-53
2022/05/17 08:09:52;;;;;;;2.10;1.50;;;;;;;25.33;56.42;100966.53;4976930;28;20125;-52
2022/05/17 08:12:36;;;;;;;;;;;;;;;25.28;56.82;100966.34;4977803;28;20096;-53
2022/05/17 08:15:21;;;;;;;1.60;1.50;;;;;;;25.31;56.78;100963.19;4976882;28;20020;-54
2022/05/17 08:18:06;;;;;;;1.70;1.60;;;;;;;25.34;56.63;100960.81;4976006;28;20648;-51
2022/05/17 08:20:50;;;;;;;1.35;1.25;;;;;;;25.34;56.57;100951.81;4976795;28;20056;-53
2022/05/17 08:23:34;;;;;;;;;;;;;;;25.30;56.69;100956.06;4977116;28;20415;-55
2022/05/17 08:29:20;;;;;;;1.83;1.60;;;;;;;25.34;56.26;100952.63;4976968;28;20104;-51
2022/05/17 08:35:07;;;;;;;1.50;1.40;;;;;;;25.36;56.49;100955.16;4976796;28;20116;-52
2022/05/17 08:37:51;;;;;;;;;;;;;;;25.32;56.37;100957.50;4977066;28;20145;-55
2022/05/17 08:40:46;;;;;;;1.45;1.35;;;;;;;25.37;56.38;100956.81;4976668;28;19990;-54
2022/05/17 08:43:51;;;;;;;1.70;1.35;;;;;;;25.39;56.30;100965.63;4976240;28;20089;-54
2022/05/17 08:46:57;;;;;;;1.75;1.40;;;;;;;25.40;56.13;100959.94;4976262;28;20106;-51
2022/05/17 08:49:53;;;;;;;1.60;1.50;;;;;;;25.42;56.13;100959.72;4961909;28;20533;-50
2022/05/17 08:52:40;;;;;;;1.23;1.13;;;;;;;25.42;56.19;100966.00;4961545;28;20088;-52
2022/05/17 08:55:28;;;;;;;1.48;1.38;;;;;;;25.45;56.16;100964.72;4976144;28;20054;-56
2022/05/17 08:58:19;;;;;;;3.05;1.42;;;;;;;25.45;56.13;100964.72;4961509;28;20100;-53
2022/05/17 09:01:07;;;;;;;2.78;1.40;;;;;;;25.45;56.15;100970.19;4961401;28;20085;-53
2022/05/17 09:04:03;;;;;;;1.50;1.40;;;;;;;25.44;55.91;100961.16;4961781;28;20087;-54
2022/05/17 09:07:00;;;;;;;1.40;1.30;;;;;;;25.47;55.89;100968.06;4961648;28;20130;-52
2022/05/17 09:09:51;;;;;;;1.40;1.30;;;;;;;25.49;55.96;100965.94;4961154;28;20056;-50
2022/05/17 09:12:51;;;;;;;1.60;1.50;;;;;;;25.50;55.92;100967.63;4975739;28;20125;-53
2022/05/17 09:15:35;;;;;;;1.42;1.33;;;;;;;25.49;55.92;100963.22;4961748;28;20088;-52
2022/05/17 09:18:19;;;;;;;1.30;1.20;;;;;;;25.50;55.79;100963.00;4975805;28;20082;-52
2022/05/17 09:21:03;;;;;;;1.70;1.60;;;;;;;25.51;55.80;100955.66;4960939;28;20121;-51
2022/05/17 09:23:47;;;;;;;;;;;;;;;25.49;55.96;100960.50;4975941;28;20090;-53
2022/05/17 09:26:32;;;;;;;1.85;1.50;;;;;;;25.51;55.71;100959.22;4975516;28;20290;-54
2022/05/17 09:29:20;;;;;;;1.38;1.27;;;;;;;25.55;55.78;100955.00;4960906;28;20054;-53
2022/05/17 09:32:07;;;;;;;1.38;1.27;;;;;;;25.56;55.74;100956.66;4960827;28;20058;-55
2022/05/17 09:35:21;;;;;;;1.70;1.35;;;;;;;25.57;55.59;100958.31;4975636;28;20053;-53
2022/05/17 09:38:06;;;;;;;1.40;1.30;;;;;;;25.58;55.69;100948.22;4975502;28;20054;-53
2022/05/17 09:40:53;;;;;;;1.60;1.50;;;;;;;25.58;55.58;100940.03;4975479;28;20101;-52
2022/05/17 09:44:05;;;;;;;2.70;1.48;;;;;;;25.59;55.61;100939.81;4975414;28;20049;-50
2022/05/17 09:46:50;;;;;;;1.73;1.52;;;;;;;25.61;55.58;100936.88;4975092;28;20088;-55
2022/05/17 09:52:46;;;;;;;1.50;1.38;;;;;;;25.63;55.56;100929.28;4963295;28;20061;-51
2022/05/17 09:55:32;;;;;;;1.50;1.40;;;;;;;25.64;55.43;100928.22;4961207;28;20053;-54
2022/05/17 09:58:33;;;;;;;1.67;1.50;;;;;;;25.65;55.43;100927.16;4974967;28;20053;-52
2022/05/17 10:01:21;;;;;;;1.40;1.30;;;;;;;25.66;55.35;100934.28;4960806;28;20594;-53
2022/05/17 10:04:13;;;;;;;1.50;1.40;;;;;;;25.68;55.17;100921.22;4975439;28;20100;-50
2022/05/17 10:06:57;;;;;;;1.60;1.50;;;;;;;25.68;55.24;100916.63;4974820;28;20133;-50
2022/05/17 10:09:41;;;;;;;1.80;1.50;;;;;;;25.69;55.25;100922.91;4974735;28;20450;-52
2022/05/17 10:12:34;;;;;;;;;;;;;;;25.67;55.31;100923.16;4975363;28;20102;-53
2022/05/17 10:15:19;;;;;;;1.80;1.55;;;;;;;25.72;55.24;100922.47;4960351;28;20056;-54
2022/05/17 10:18:11;;;;;;;1.52;1.42;;;;;;;25.73;55.26;100916.75;4974727;28;20523;-56
2022/05/17 10:20:59;;;;;;;1.55;1.45;;;;;;;25.75;55.22;100920.09;4960042;28;20049;-53
2022/05/17 10:23:50;;;;;;;1.70;1.60;;;;;;;25.76;55.11;100912.75;4960120;28;20057;-50
2022/05/17 10:26:39;;;;;;;1.77;1.50;;;;;;;25.78;54.99;100914.19;4946370;28;20050;-51
2022/05/17 10:29:44;;;;;;;2.38;1.58;;;;;;;25.79;55.09;100906.81;4959890;28;20534;-53
2022/05/17 10:32:32;;;;;;;1.42;1.33;;;;;;;25.79;54.93;100901.34;4960312;28;20178;-54
2022/05/17 10:35:35;;;;;;;1.58;1.42;;;;;;;25.80;54.84;100897.56;4959889;28;20133;-54
2022/05/17 10:38:25;;;;;;;2.80;1.40;;;;;;;25.81;55.02;100896.50;4974433;28;20049;-51
2022/05/17 10:41:11;;;;;;;1.40;1.30;;;;;;;25.81;54.86;100882.84;4959135;28;20054;-51
2022/05/17 10:43:55;;;;;;;1.40;1.23;;;;;;;25.81;54.69;100891.88;4959700;28;20089;-50
2022/05/17 10:46:39;;;;;;;;;;;;;;;25.78;54.84;100889.63;4974789;28;20050;-53
2022/05/17 10:49:33;;;;;;;1.42;1.33;;;;;;;25.83;54.85;100886.19;4974618;28;20306;-55
2022/05/17 10:52:58;;;;;;;1.60;1.50;;;;;;;25.82;54.80;100881.81;4960214;28;20438;-52
2022/05/17 10:56:03;;;;;;;1.83;1.40;;;;;;;25.83;54.69;100876.09;4959960;28;20084;-54
2022/05/17 10:59:25;;;;;;;2.05;1.70;;;;;;;25.85;54.61;100882.16;4960160;28;20053;-55
2022/05/17 11:02:14;;;;;;;1.40;1.30;;;;;;;25.85;54.72;100876.69;4974150;28;20105;-55
2022/05/17 11:04:58;;;;;;;1.60;1.50;;;;;;;25.85;54.78;100873.16;4960110;28;20049;-50
2022/05/17 11:07:59;;;;;;;1.67;1.50;;;;;;;25.87;54.62;100877.34;4974505;28;20101;-51
2022/05/17 11:11:17;;;;;;;1.67;1.58;;;;;;;25.87;54.61;100871.91;4959607;28;20590;-51
2022/05/17 11:14:07;;;;;;;1.60;1.50;;;;;;;25.90;54.98;100867.84;4959681;28;20563;-50
2022/05/17 11:17:00;;;;;;;1.58;1.38;;;;;;;25.90;54.47;100862.38;4959437;28;20418;-51
2022/05/17 11:19:48;;;;;;;1.63;1.40;;;;;;;25.90;54.59;100859.66;4974018;28;20446;-52
2022/05/17 11:22:56;;;;;;;1.73;1.58;;;;;;;25.93;54.55;100853.75;4959861;28;20108;-53
2022/05/17 11:25:52;;;;;;;1.58;1.48;;;;;;;25.93;54.65;100848.28;4974213;28;20085;-54
2022/05/17 11:28:55;;;;;;;1.50;1.40;;;;;;;25.94;54.50;100852.69;4973811;28;20101;-52
2022/05/17 11:31:52;;;;;;;1.60;1.50;;;;;;;25.96;54.41;100848.66;4974246;28;20062;-51
2022/05/17 11:34:42;;;;;;;1.40;1.30;;;;;;;25.99;54.41;100847.34;4959959;28;20053;-52
2022/05/17 11:37:31;;;;;;;1.55;1.30;;;;;;;26.02;54.39;100849.66;4974142;28;20113;-51
2022/05/17 11:40:47;;;;;;;1.58;1.48;;;;;;;26.04;54.04;100844.78;4973914;28;20053;-55
2022/05/17 11:43:44;;;;;;;1.38;1.27;;;;;;;26.07;54.16;100844.31;4974030;28;20096;-50
2022/05/17 11:46:28;;;;;;;1.92;1.58;;;;;;;26.07;54.17;100849.78;4973905;28;20097;-57
2022/05/17 11:49:12;;;;;;;;;;;;;;;26.07;53.99;100838.84;4974268;28;20093;-50
2022/05/17 11:51:59;;;;;;;1.70;1.60;;;;;;;26.13;53.96;100833.28;4975366;28;19920;-51
2022/05/17 11:54:47;;;;;;;2.47;1.50;;;;;;;26.15;53.75;100819.41;4977298;28;20058;-56
2022/05/17 11:57:32;;;;;;;2.72;1.65;;;;;;;26.20;53.72;100822.25;4977683;28;20534;-51
2022/05/17 12:00:41;;;;;;;1.52;1.42;;;;;;;26.23;53.37;100824.53;4977168;28;20415;-53
2022/05/17 12:03:55;;;;;;;1.58;1.35;;;;;;;26.26;53.31;100827.63;4977110;28;20046;-54
2022/05/17 12:06:53;;;;;;;1.60;1.50;;;;;;;26.29;53.47;100821.72;4976969;28;20142;-50
2022/05/17 12:09:47;;;;;;;1.58;1.42;;;;;;;26.34;53.25;100818.28;4977513;28;20054;-51
2022/05/17 12:12:40;;;;;;;1.50;1.40;;;;;;;26.38;52.80;100814.84;4962246;28;20094;-54
2022/05/17 12:15:38;;;;;;;1.65;1.30;;;;;;;26.42;52.68;100809.72;4977186;28;20133;-50
2022/05/17 12:18:44;;;;;;;1.35;1.25;;;;;;;26.44;52.59;100819.38;4977115;28;20054;-51
2022/05/17 12:21:31;;;;;;;1.30;1.20;;;;;;;26.47;52.61;100807.13;4962504;28;20562;-52
2022/05/17 12:24:34;;;;;;;1.77;1.67;;;;;;;26.53;52.57;100803.50;4977010;28;20101;-52
2022/05/17 12:27:24;;;;;;;1.55;1.45;;;;;;;26.58;52.45;100804.47;4976880;28;20090;-52
2022/05/17 12:33:36;;;;;;;1.50;1.40;;;;;;;26.65;51.97;100796.97;4976452;28;20097;-52
2022/05/17 12:36:29;;;;;;;1.40;1.30;;;;;;;26.70;51.75;100802.59;4976792;28;20085;-53
2022/05/17 12:45:22;;;;;;;1.50;1.40;;;;;;;26.83;51.33;100791.41;4976536;28;20121;-54
2022/05/17 12:48:29;;;;;;;1.52;1.42;;;;;;;26.87;51.48;100781.63;4976318;28;20062;-52
2022/05/17 12:51:17;;;;;;;2.45;1.50;;;;;;;26.91;51.10;100782.00;4962014;28;20081;-54
2022/05/17 12:54:03;;;;;;;1.60;1.50;;;;;;;26.94;50.96;100770.59;4961495;28;20093;-51
2022/05/17 12:56:47;;;;;;;1.38;1.27;;;;;;;26.98;50.88;100765.22;4961905;28;20081;-53
2022/05/17 12:59:32;;;;;;;;;;;;;;;26.98;51.02;100767.97;4976767;28;20061;-54
2022/05/17 13:02:20;;;;;;;;;;;;;;;27.01;50.94;100761.19;4976671;28;19965;-54
2022/05/17 13:05:22;;;;;;;1.42;1.33;;;;;;;27.09;50.62;100753.44;4975764;28;20428;-54
2022/05/17 13:08:06;;;;;;;1.35;1.33;;;;;;;27.14;50.55;100748.13;4976226;28;20081;-51
2022/05/17 13:11:04;;;;;;;;;;;;;;;27.17;50.45;100753.13;4961641;28;20073;-54
2022/05/17 13:13:47;;;;;;;1.50;1.40;;;;;;;27.24;49.92;100750.25;4975752;28;19964;-51
2022/05/17 13:16:36;;;;;;;;;;;;;;;27.24;50.19;100747.50;4976454;28;20569;-53
2022/05/17 13:19:26;;;;;;;1.60;1.50;;;;;;;27.28;49.80;100741.31;4975986;28;19936;-52
2022/05/17 13:22:12;;;;;;;1.55;1.45;;;;;;;27.31;49.99;100740.81;4948191;28;20146;-52
2022/05/17 13:25:02;;;;;;;1.70;1.60;;;;;;;27.33;49.67;100737.84;4961156;28;20049;-53
2022/05/17 13:27:50;;;;;;;1.50;1.40;;;;;;;27.33;49.57;100738.66;4975812;28;20135;-55
2022/05/17 13:30:37;;;;;;;1.40;1.30;;;;;;;27.32;49.58;100737.00;4975575;28;20522;-51
2022/05/17 13:33:33;;;;;;;2.38;1.48;;;;;;;27.31;49.75;100735.34;4976407;28;20058;-56
2022/05/17 13:36:38;;;;;;;1.40;1.30;;;;;;;27.30;49.69;100738.34;4961078;28;20141;-56
2022/05/17 13:39:29;;;;;;;1.67;1.52;;;;;;;27.28;49.87;100724.88;4975403;28;20177;-54
2022/05/17 13:42:28;;;;;;;1.60;1.50;;;;;;;27.26;49.60;100729.78;4975195;28;20050;-57